sensor_id;sensor_type;location;lat;lon;timestamp;P1;durP1;ratioP1;P2;durP2;ratioP2
40705;SDS011;35790;50.790;20.800;2022-08-21T00:02:24;8.35;;;4.97;;
40705;SDS011;35790;50.790;20.800;2022-08-21T00:05:12;9.60;;;5.10;;
40705;SDS011;35790;50.790;20.800;2022-08-21T00:08:00;9.18;;;4.80;;
40705;SDS011;35790;50.790;20.800;2022-08-21T00:10:47;8.83;;;5.40;;
40705;SDS011;35790;50.790;20.800;2022-08-21T00:13:35;7.42;;;5.30;;
40705;SDS011;35790;50.790;20.800;2022-08-21T00:16:23;13.58;;;5.28;;
40705;SDS011;35790;50.790;20.800;2022-08-21T00:19:10;12.93;;;5.28;;
40705;SDS011;35790;50.790;20.800;2022-08-21T00:21:58;8.90;;;4.90;;
40705;SDS011;35790;50.790;20.800;2022-08-21T00:24:45;9.25;;;5.50;;
40705;SDS011;35790;50.790;20.800;2022-08-21T00:27:33;7.80;;;5.35;;
40705;SDS011;35790;50.790;20.800;2022-08-21T00:30:22;5.62;;;4.58;;
40705;SDS011;35790;50.790;20.800;2022-08-21T00:33:11;8.53;;;4.72;;
40705;SDS011;35790;50.790;20.800;2022-08-21T00:35:58;8.55;;;4.92;;
40705;SDS011;35790;50.790;20.800;2022-08-21T00:38:46;7.17;;;5.03;;
40705;SDS011;35790;50.790;20.800;2022-08-21T00:41:34;6.35;;;5.30;;
40705;SDS011;35790;50.790;20.800;2022-08-21T00:47:10;6.97;;;5.08;;
40705;SDS011;35790;50.790;20.800;2022-08-21T00:49:58;7.28;;;4.75;;
40705;SDS011;35790;50.790;20.800;2022-08-21T00:52:46;6.78;;;4.37;;
40705;SDS011;35790;50.790;20.800;2022-08-21T00:55:34;7.75;;;5.03;;
40705;SDS011;35790;50.790;20.800;2022-08-21T00:58:24;10.00;;;5.37;;
40705;SDS011;35790;50.790;20.800;2022-08-21T01:01:13;10.70;;;5.20;;
40705;SDS011;35790;50.790;20.800;2022-08-21T01:04:02;8.00;;;4.80;;
40705;SDS011;35790;50.790;20.800;2022-08-21T01:06:50;8.23;;;5.20;;
40705;SDS011;35790;50.790;20.800;2022-08-21T01:09:37;6.45;;;4.97;;
40705;SDS011;35790;50.790;20.800;2022-08-21T01:12:25;7.50;;;4.97;;
40705;SDS011;35790;50.790;20.800;2022-08-21T01:15:13;7.03;;;4.87;;
40705;SDS011;35790;50.790;20.800;2022-08-21T01:18:02;10.40;;;5.10;;
40705;SDS011;35790;50.790;20.800;2022-08-21T01:23:58;9.23;;;4.87;;
40705;SDS011;35790;50.790;20.800;2022-08-21T01:26:45;6.55;;;5.30;;
40705;SDS011;35790;50.790;20.800;2022-08-21T01:32:23;6.67;;;5.03;;
40705;SDS011;35790;50.790;20.800;2022-08-21T01:35:12;7.60;;;5.20;;
40705;SDS011;35790;50.790;20.800;2022-08-21T01:38:00;6.77;;;5.17;;
40705;SDS011;35790;50.790;20.800;2022-08-21T01:40:48;10.53;;;4.60;;
40705;SDS011;35790;50.790;20.800;2022-08-21T01:43:35;6.58;;;5.28;;
40705;SDS011;35790;50.790;20.800;2022-08-21T01:46:24;9.28;;;4.78;;
40705;SDS011;35790;50.790;20.800;2022-08-21T01:49:11;10.95;;;5.22;;
40705;SDS011;35790;50.790;20.800;2022-08-21T01:51:59;7.90;;;5.03;;
40705;SDS011;35790;50.790;20.800;2022-08-21T01:54:46;9.70;;;5.83;;
40705;SDS011;35790;50.790;20.800;2022-08-21T01:57:36;5.97;;;4.62;;
40705;SDS011;35790;50.790;20.800;2022-08-21T02:00:23;7.20;;;4.58;;
40705;SDS011;35790;50.790;20.800;2022-08-21T02:03:11;11.90;;;5.17;;
40705;SDS011;35790;50.790;20.800;2022-08-21T02:06:00;8.67;;;5.17;;
40705;SDS011;35790;50.790;20.800;2022-08-21T02:08:49;6.35;;;4.70;;
40705;SDS011;35790;50.790;20.800;2022-08-21T02:11:37;8.78;;;4.30;;
40705;SDS011;35790;50.790;20.800;2022-08-21T02:14:26;8.15;;;5.00;;
40705;SDS011;35790;50.790;20.800;2022-08-21T02:17:15;7.05;;;5.20;;
40705;SDS011;35790;50.790;20.800;2022-08-21T02:20:03;8.20;;;4.83;;
40705;SDS011;35790;50.790;20.800;2022-08-21T02:22:51;9.68;;;4.90;;
40705;SDS011;35790;50.790;20.800;2022-08-21T02:25:39;7.47;;;4.58;;
40705;SDS011;35790;50.790;20.800;2022-08-21T02:28:26;10.03;;;5.17;;
40705;SDS011;35790;50.790;20.800;2022-08-21T02:31:14;8.60;;;4.87;;
40705;SDS011;35790;50.790;20.800;2022-08-21T02:34:02;7.12;;;5.35;;
40705;SDS011;35790;50.790;20.800;2022-08-21T02:36:49;6.45;;;5.30;;
40705;SDS011;35790;50.790;20.800;2022-08-21T02:39:39;7.30;;;5.10;;
40705;SDS011;35790;50.790;20.800;2022-08-21T02:42:26;7.20;;;5.50;;
40705;SDS011;35790;50.790;20.800;2022-08-21T02:45:16;7.72;;;5.30;;
40705;SDS011;35790;50.790;20.800;2022-08-21T02:48:05;8.48;;;4.85;;
40705;SDS011;35790;50.790;20.800;2022-08-21T02:50:58;6.78;;;5.25;;
40705;SDS011;35790;50.790;20.800;2022-08-21T02:53:47;7.37;;;4.87;;
40705;SDS011;35790;50.790;20.800;2022-08-21T02:56:36;6.65;;;4.95;;
40705;SDS011;35790;50.790;20.800;2022-08-21T02:59:23;8.70;;;5.33;;
40705;SDS011;35790;50.790;20.800;2022-08-21T03:02:10;10.65;;;5.40;;
40705;SDS011;35790;50.790;20.800;2022-08-21T03:04:57;5.75;;;4.62;;
40705;SDS011;35790;50.790;20.800;2022-08-21T03:07:45;6.83;;;5.08;;
40705;SDS011;35790;50.790;20.800;2022-08-21T03:10:34;7.42;;;5.15;;
40705;SDS011;35790;50.790;20.800;2022-08-21T03:13:21;9.20;;;5.05;;
40705;SDS011;35790;50.790;20.800;2022-08-21T03:16:09;7.25;;;4.60;;
40705;SDS011;35790;50.790;20.800;2022-08-21T03:18:56;5.28;;;4.67;;
40705;SDS011;35790;50.790;20.800;2022-08-21T03:21:45;9.48;;;4.83;;
40705;SDS011;35790;50.790;20.800;2022-08-21T03:24:33;6.47;;;4.62;;
40705;SDS011;35790;50.790;20.800;2022-08-21T03:27:21;6.67;;;4.42;;
40705;SDS011;35790;50.790;20.800;2022-08-21T03:30:09;6.80;;;4.62;;
40705;SDS011;35790;50.790;20.800;2022-08-21T03:33:00;6.50;;;4.65;;
40705;SDS011;35790;50.790;20.800;2022-08-21T03:35:51;6.55;;;4.42;;
40705;SDS011;35790;50.790;20.800;2022-08-21T03:38:45;6.67;;;4.58;;
40705;SDS011;35790;50.790;20.800;2022-08-21T03:41:33;6.58;;;4.87;;
40705;SDS011;35790;50.790;20.800;2022-08-21T03:44:20;8.55;;;4.62;;
40705;SDS011;35790;50.790;20.800;2022-08-21T03:47:08;4.92;;;4.40;;
40705;SDS011;35790;50.790;20.800;2022-08-21T03:49:55;6.80;;;4.33;;
40705;SDS011;35790;50.790;20.800;2022-08-21T03:52:43;6.28;;;4.47;;
40705;SDS011;35790;50.790;20.800;2022-08-21T03:55:30;6.55;;;4.42;;
40705;SDS011;35790;50.790;20.800;2022-08-21T03:58:19;6.35;;;4.47;;
40705;SDS011;35790;50.790;20.800;2022-08-21T04:01:09;8.28;;;5.08;;
40705;SDS011;35790;50.790;20.800;2022-08-21T04:03:58;8.08;;;3.98;;
40705;SDS011;35790;50.790;20.800;2022-08-21T04:06:45;9.40;;;4.55;;
40705;SDS011;35790;50.790;20.800;2022-08-21T04:09:33;10.10;;;4.70;;
40705;SDS011;35790;50.790;20.800;2022-08-21T04:12:21;5.65;;;4.22;;
40705;SDS011;35790;50.790;20.800;2022-08-21T04:15:09;6.08;;;4.72;;
40705;SDS011;35790;50.790;20.800;2022-08-21T04:17:58;8.38;;;4.72;;
40705;SDS011;35790;50.790;20.800;2022-08-21T04:20:46;7.95;;;5.00;;
40705;SDS011;35790;50.790;20.800;2022-08-21T04:23:36;7.40;;;5.30;;
40705;SDS011;35790;50.790;20.800;2022-08-21T04:26:24;8.55;;;4.80;;
40705;SDS011;35790;50.790;20.800;2022-08-21T04:29:11;7.00;;;4.70;;
40705;SDS011;35790;50.790;20.800;2022-08-21T04:31:59;8.23;;;4.97;;
40705;SDS011;35790;50.790;20.800;2022-08-21T04:34:47;9.28;;;5.28;;
40705;SDS011;35790;50.790;20.800;2022-08-21T04:37:34;9.00;;;5.12;;
40705;SDS011;35790;50.790;20.800;2022-08-21T04:40:25;9.47;;;4.77;;
40705;SDS011;35790;50.790;20.800;2022-08-21T04:43:14;7.50;;;5.10;;
40705;SDS011;35790;50.790;20.800;2022-08-21T04:46:01;7.37;;;5.28;;
40705;SDS011;35790;50.790;20.800;2022-08-21T04:48:49;6.05;;;5.05;;
40705;SDS011;35790;50.790;20.800;2022-08-21T04:51:37;8.98;;;4.60;;
40705;SDS011;35790;50.790;20.800;2022-08-21T04:54:25;8.10;;;5.20;;
40705;SDS011;35790;50.790;20.800;2022-08-21T04:57:12;7.85;;;5.08;;
40705;SDS011;35790;50.790;20.800;2022-08-21T05:00:02;8.80;;;5.08;;
40705;SDS011;35790;50.790;20.800;2022-08-21T05:02:53;7.97;;;4.55;;
40705;SDS011;35790;50.790;20.800;2022-08-21T05:05:44;9.30;;;5.05;;
40705;SDS011;35790;50.790;20.800;2022-08-21T05:08:31;6.55;;;4.67;;
40705;SDS011;35790;50.790;20.800;2022-08-21T05:11:19;5.47;;;4.85;;
40705;SDS011;35790;50.790;20.800;2022-08-21T05:14:09;7.87;;;4.80;;
40705;SDS011;35790;50.790;20.800;2022-08-21T05:16:58;6.37;;;5.08;;
40705;SDS011;35790;50.790;20.800;2022-08-21T05:19:45;8.88;;;4.37;;
40705;SDS011;35790;50.790;20.800;2022-08-21T05:22:32;10.23;;;5.28;;
40705;SDS011;35790;50.790;20.800;2022-08-21T05:25:19;9.78;;;5.70;;
40705;SDS011;35790;50.790;20.800;2022-08-21T05:28:08;9.68;;;5.65;;
40705;SDS011;35790;50.790;20.800;2022-08-21T05:30:57;5.60;;;5.00;;
40705;SDS011;35790;50.790;20.800;2022-08-21T05:33:44;6.65;;;5.05;;
40705;SDS011;35790;50.790;20.800;2022-08-21T05:36:34;7.72;;;5.20;;
40705;SDS011;35790;50.790;20.800;2022-08-21T05:39:21;6.20;;;4.95;;
40705;SDS011;35790;50.790;20.800;2022-08-21T05:42:09;9.18;;;4.95;;
40705;SDS011;35790;50.790;20.800;2022-08-21T05:44:57;7.17;;;4.58;;
40705;SDS011;35790;50.790;20.800;2022-08-21T05:47:45;7.20;;;4.65;;
40705;SDS011;35790;50.790;20.800;2022-08-21T05:50:32;6.35;;;5.10;;
40705;SDS011;35790;50.790;20.800;2022-08-21T05:53:21;10.13;;;4.80;;
40705;SDS011;35790;50.790;20.800;2022-08-21T05:56:10;4.50;;;4.10;;
40705;SDS011;35790;50.790;20.800;2022-08-21T05:58:58;6.70;;;4.47;;
40705;SDS011;35790;50.790;20.800;2022-08-21T06:01:46;5.25;;;4.40;;
40705;SDS011;35790;50.790;20.800;2022-08-21T06:07:25;7.17;;;4.75;;
40705;SDS011;35790;50.790;20.800;2022-08-21T06:10:14;7.65;;;4.30;;
40705;SDS011;35790;50.790;20.800;2022-08-21T06:13:03;9.18;;;5.15;;
40705;SDS011;35790;50.790;20.800;2022-08-21T06:16:00;7.37;;;4.60;;
40705;SDS011;35790;50.790;20.800;2022-08-21T06:18:53;7.20;;;4.60;;
40705;SDS011;35790;50.790;20.800;2022-08-21T06:21:42;6.80;;;5.20;;
40705;SDS011;35790;50.790;20.800;2022-08-21T06:24:30;8.05;;;5.08;;
40705;SDS011;35790;50.790;20.800;2022-08-21T06:27:18;9.80;;;4.80;;
40705;SDS011;35790;50.790;20.800;2022-08-21T06:30:08;6.50;;;4.70;;
40705;SDS011;35790;50.790;20.800;2022-08-21T06:32:56;6.92;;;5.05;;
40705;SDS011;35790;50.790;20.800;2022-08-21T06:35:43;7.05;;;4.58;;
40705;SDS011;35790;50.790;20.800;2022-08-21T06:38:31;9.23;;;4.25;;
40705;SDS011;35790;50.790;20.800;2022-08-21T06:41:20;5.47;;;4.50;;
40705;SDS011;35790;50.790;20.800;2022-08-21T06:44:09;5.35;;;4.80;;
40705;SDS011;35790;50.790;20.800;2022-08-21T06:46:57;5.00;;;4.40;;
40705;SDS011;35790;50.790;20.800;2022-08-21T06:49:44;5.92;;;4.70;;
40705;SDS011;35790;50.790;20.800;2022-08-21T06:52:32;10.13;;;4.62;;
40705;SDS011;35790;50.790;20.800;2022-08-21T06:55:20;5.42;;;4.12;;
40705;SDS011;35790;50.790;20.800;2022-08-21T06:58:09;9.43;;;5.20;;
40705;SDS011;35790;50.790;20.800;2022-08-21T07:00:57;7.53;;;4.65;;
40705;SDS011;35790;50.790;20.800;2022-08-21T07:03:45;6.05;;;5.05;;
40705;SDS011;35790;50.790;20.800;2022-08-21T07:06:33;6.37;;;4.17;;
40705;SDS011;35790;50.790;20.800;2022-08-21T07:09:22;6.47;;;4.60;;
40705;SDS011;35790;50.790;20.800;2022-08-21T07:12:09;6.75;;;4.42;;
40705;SDS011;35790;50.790;20.800;2022-08-21T07:14:56;6.85;;;4.83;;
40705;SDS011;35790;50.790;20.800;2022-08-21T07:17:43;8.55;;;4.22;;
40705;SDS011;35790;50.790;20.800;2022-08-21T07:20:31;8.30;;;4.42;;
40705;SDS011;35790;50.790;20.800;2022-08-21T07:26:21;12.88;;;4.50;;
40705;SDS011;35790;50.790;20.800;2022-08-21T07:29:10;5.80;;;4.28;;
40705;SDS011;35790;50.790;20.800;2022-08-21T07:31:57;7.00;;;4.17;;
40705;SDS011;35790;50.790;20.800;2022-08-21T07:34:45;11.60;;;4.53;;
40705;SDS011;35790;50.790;20.800;2022-08-21T07:37:32;5.65;;;4.35;;
40705;SDS011;35790;50.790;20.800;2022-08-21T07:40:20;8.43;;;4.30;;
40705;SDS011;35790;50.790;20.800;2022-08-21T07:43:08;7.87;;;4.35;;
40705;SDS011;35790;50.790;20.800;2022-08-21T07:45:56;6.83;;;4.17;;
40705;SDS011;35790;50.790;20.800;2022-08-21T07:48:44;10.45;;;5.15;;
40705;SDS011;35790;50.790;20.800;2022-08-21T07:51:31;9.68;;;4.72;;
40705;SDS011;35790;50.790;20.800;2022-08-21T07:54:19;7.62;;;4.53;;
40705;SDS011;35790;50.790;20.800;2022-08-21T07:57:08;11.80;;;5.35;;
40705;SDS011;35790;50.790;20.800;2022-08-21T07:59:55;12.90;;;5.40;;
40705;SDS011;35790;50.790;20.800;2022-08-21T08:02:46;10.48;;;5.10;;
40705;SDS011;35790;50.790;20.800;2022-08-21T08:05:36;16.73;;;5.67;;
40705;SDS011;35790;50.790;20.800;2022-08-21T08:08:24;9.08;;;4.80;;
40705;SDS011;35790;50.790;20.800;2022-08-21T08:11:12;10.90;;;4.90;;
40705;SDS011;35790;50.790;20.800;2022-08-21T08:14:04;7.95;;;4.67;;
40705;SDS011;35790;50.790;20.800;2022-08-21T08:16:52;8.38;;;4.40;;
40705;SDS011;35790;50.790;20.800;2022-08-21T08:19:40;9.45;;;5.08;;
40705;SDS011;35790;50.790;20.800;2022-08-21T08:22:28;11.80;;;5.45;;
40705;SDS011;35790;50.790;20.800;2022-08-21T08:25:16;9.68;;;5.15;;
40705;SDS011;35790;50.790;20.800;2022-08-21T08:28:04;8.80;;;4.85;;
40705;SDS011;35790;50.790;20.800;2022-08-21T08:30:54;11.93;;;4.87;;
40705;SDS011;35790;50.790;20.800;2022-08-21T08:33:41;9.83;;;5.10;;
40705;SDS011;35790;50.790;20.800;2022-08-21T08:36:33;13.13;;;5.45;;
40705;SDS011;35790;50.790;20.800;2022-08-21T08:39:26;10.13;;;4.97;;
40705;SDS011;35790;50.790;20.800;2022-08-21T08:45:20;7.55;;;5.00;;
40705;SDS011;35790;50.790;20.800;2022-08-21T08:48:10;8.33;;;5.08;;
40705;SDS011;35790;50.790;20.800;2022-08-21T08:50:59;10.40;;;5.20;;
40705;SDS011;35790;50.790;20.800;2022-08-21T08:53:55;9.58;;;5.78;;
40705;SDS011;35790;50.790;20.800;2022-08-21T08:56:45;8.28;;;5.20;;
40705;SDS011;35790;50.790;20.800;2022-08-21T08:59:38;10.70;;;5.55;;
40705;SDS011;35790;50.790;20.800;2022-08-21T09:02:28;9.30;;;5.17;;
40705;SDS011;35790;50.790;20.800;2022-08-21T09:05:22;7.12;;;4.75;;
40705;SDS011;35790;50.790;20.800;2022-08-21T09:08:25;6.35;;;4.70;;
40705;SDS011;35790;50.790;20.800;2022-08-21T09:14:23;10.38;;;5.03;;
40705;SDS011;35790;50.790;20.800;2022-08-21T09:23:17;7.00;;;4.75;;
40705;SDS011;35790;50.790;20.800;2022-08-21T09:26:07;9.70;;;5.30;;
40705;SDS011;35790;50.790;20.800;2022-08-21T09:29:03;8.73;;;4.93;;
40705;SDS011;35790;50.790;20.800;2022-08-21T09:31:51;9.45;;;5.50;;
40705;SDS011;35790;50.790;20.800;2022-08-21T09:34:39;10.85;;;5.80;;
40705;SDS011;35790;50.790;20.800;2022-08-21T09:37:27;12.35;;;6.03;;
40705;SDS011;35790;50.790;20.800;2022-08-21T09:40:29;15.32;;;5.42;;
40705;SDS011;35790;50.790;20.800;2022-08-21T09:43:22;12.35;;;5.95;;
40705;SDS011;35790;50.790;20.800;2022-08-21T09:46:10;9.98;;;5.97;;
40705;SDS011;35790;50.790;20.800;2022-08-21T09:49:02;13.38;;;6.65;;
40705;SDS011;35790;50.790;20.800;2022-08-21T09:51:52;12.15;;;6.50;;
40705;SDS011;35790;50.790;20.800;2022-08-21T09:54:39;7.15;;;5.50;;
40705;SDS011;35790;50.790;20.800;2022-08-21T09:57:28;7.20;;;5.53;;
40705;SDS011;35790;50.790;20.800;2022-08-21T10:00:30;8.10;;;5.50;;
40705;SDS011;35790;50.790;20.800;2022-08-21T10:03:20;7.72;;;5.53;;
40705;SDS011;35790;50.790;20.800;2022-08-21T10:06:09;11.73;;;6.12;;
40705;SDS011;35790;50.790;20.800;2022-08-21T10:12:01;10.38;;;6.08;;
40705;SDS011;35790;50.790;20.800;2022-08-21T10:17:54;8.43;;;5.05;;
40705;SDS011;35790;50.790;20.800;2022-08-21T10:20:53;8.63;;;5.15;;
40705;SDS011;35790;50.790;20.800;2022-08-21T10:30:29;11.48;;;6.30;;
40705;SDS011;35790;50.790;20.800;2022-08-21T10:36:10;9.55;;;4.83;;
40705;SDS011;35790;50.790;20.800;2022-08-21T10:45:03;10.43;;;4.97;;
40705;SDS011;35790;50.790;20.800;2022-08-21T10:48:01;9.35;;;4.62;;
40705;SDS011;35790;50.790;20.800;2022-08-21T10:53:55;5.87;;;5.08;;
40705;SDS011;35790;50.790;20.800;2022-08-21T10:56:41;10.28;;;5.03;;
40705;SDS011;35790;50.790;20.800;2022-08-21T10:59:44;7.65;;;5.70;;
40705;SDS011;35790;50.790;20.800;2022-08-21T11:02:37;6.42;;;5.12;;
40705;SDS011;35790;50.790;20.800;2022-08-21T11:05:42;11.00;;;5.65;;
40705;SDS011;35790;50.790;20.800;2022-08-21T11:08:45;7.42;;;5.65;;
40705;SDS011;35790;50.790;20.800;2022-08-21T11:11:42;9.68;;;4.65;;
40705;SDS011;35790;50.790;20.800;2022-08-21T11:17:40;9.93;;;5.35;;
40705;SDS011;35790;50.790;20.800;2022-08-21T11:20:50;7.92;;;5.55;;
40705;SDS011;35790;50.790;20.800;2022-08-21T11:24:03;6.20;;;4.80;;
40705;SDS011;35790;50.790;20.800;2022-08-21T11:27:17;9.85;;;5.20;;
40705;SDS011;35790;50.790;20.800;2022-08-21T11:30:11;9.00;;;5.50;;
40705;SDS011;35790;50.790;20.800;2022-08-21T11:35:59;8.80;;;5.37;;
40705;SDS011;35790;50.790;20.800;2022-08-21T11:39:02;8.23;;;5.08;;
40705;SDS011;35790;50.790;20.800;2022-08-21T11:48:26;8.98;;;5.90;;
40705;SDS011;35790;50.790;20.800;2022-08-21T11:51:22;8.83;;;5.40;;
40705;SDS011;35790;50.790;20.800;2022-08-21T11:57:05;8.15;;;5.75;;
40705;SDS011;35790;50.790;20.800;2022-08-21T11:59:59;8.98;;;6.08;;
40705;SDS011;35790;50.790;20.800;2022-08-21T12:06:27;6.90;;;5.53;;
40705;SDS011;35790;50.790;20.800;2022-08-21T12:09:10;6.30;;;5.70;;
40705;SDS011;35790;50.790;20.800;2022-08-21T12:12:22;8.45;;;6.33;;
40705;SDS011;35790;50.790;20.800;2022-08-21T12:18:21;10.70;;;5.28;;
40705;SDS011;35790;50.790;20.800;2022-08-21T12:24:16;9.53;;;5.30;;
40705;SDS011;35790;50.790;20.800;2022-08-21T12:27:17;7.55;;;6.05;;
40705;SDS011;35790;50.790;20.800;2022-08-21T12:30:18;9.40;;;5.70;;
40705;SDS011;35790;50.790;20.800;2022-08-21T12:32:58;9.05;;;6.03;;
40705;SDS011;35790;50.790;20.800;2022-08-21T12:35:49;7.17;;;5.17;;
40705;SDS011;35790;50.790;20.800;2022-08-21T12:38:43;8.30;;;5.78;;
40705;SDS011;35790;50.790;20.800;2022-08-21T12:41:32;6.28;;;5.67;;
40705;SDS011;35790;50.790;20.800;2022-08-21T12:44:46;7.90;;;6.00;;
40705;SDS011;35790;50.790;20.800;2022-08-21T12:47:36;6.55;;;5.95;;
40705;SDS011;35790;50.790;20.800;2022-08-21T12:50:41;7.08;;;5.20;;
40705;SDS011;35790;50.790;20.800;2022-08-21T12:53:33;10.35;;;5.90;;
40705;SDS011;35790;50.790;20.800;2022-08-21T12:56:24;11.57;;;5.85;;
40705;SDS011;35790;50.790;20.800;2022-08-21T12:59:12;7.72;;;5.72;;
40705;SDS011;35790;50.790;20.800;2022-08-21T13:02:00;11.95;;;6.00;;
40705;SDS011;35790;50.790;20.800;2022-08-21T13:04:50;7.62;;;5.70;;
40705;SDS011;35790;50.790;20.800;2022-08-21T13:07:38;9.33;;;5.58;;
40705;SDS011;35790;50.790;20.800;2022-08-21T13:10:29;8.90;;;5.45;;
40705;SDS011;35790;50.790;20.800;2022-08-21T13:16:09;7.25;;;5.50;;
40705;SDS011;35790;50.790;20.800;2022-08-21T13:21:47;5.22;;;4.53;;
40705;SDS011;35790;50.790;20.800;2022-08-21T13:24:34;6.92;;;4.97;;
40705;SDS011;35790;50.790;20.800;2022-08-21T13:27:29;6.20;;;5.45;;
40705;SDS011;35790;50.790;20.800;2022-08-21T13:30:20;6.30;;;4.83;;
40705;SDS011;35790;50.790;20.800;2022-08-21T13:33:09;7.67;;;5.33;;
40705;SDS011;35790;50.790;20.800;2022-08-21T13:38:48;6.97;;;4.83;;
40705;SDS011;35790;50.790;20.800;2022-08-21T13:41:40;5.60;;;4.80;;
40705;SDS011;35790;50.790;20.800;2022-08-21T13:47:24;6.47;;;4.72;;
40705;SDS011;35790;50.790;20.800;2022-08-21T13:50:12;7.92;;;5.22;;
40705;SDS011;35790;50.790;20.800;2022-08-21T13:53:04;5.30;;;4.60;;
40705;SDS011;35790;50.790;20.800;2022-08-21T13:58:45;4.95;;;4.53;;
40705;SDS011;35790;50.790;20.800;2022-08-21T14:01:33;5.50;;;5.00;;
40705;SDS011;35790;50.790;20.800;2022-08-21T14:04:36;5.25;;;4.53;;
40705;SDS011;35790;50.790;20.800;2022-08-21T14:07:30;5.85;;;4.75;;
40705;SDS011;35790;50.790;20.800;2022-08-21T14:10:21;5.90;;;3.80;;
40705;SDS011;35790;50.790;20.800;2022-08-21T14:13:14;5.80;;;4.70;;
40705;SDS011;35790;50.790;20.800;2022-08-21T14:21:52;7.60;;;4.40;;
40705;SDS011;35790;50.790;20.800;2022-08-21T14:24:40;4.30;;;3.90;;
40705;SDS011;35790;50.790;20.800;2022-08-21T14:27:28;4.97;;;4.10;;
40705;SDS011;35790;50.790;20.800;2022-08-21T14:30:19;8.90;;;4.78;;
40705;SDS011;35790;50.790;20.800;2022-08-21T14:33:12;5.53;;;3.90;;
40705;SDS011;35790;50.790;20.800;2022-08-21T14:36:01;3.25;;;2.98;;
40705;SDS011;35790;50.790;20.800;2022-08-21T14:38:49;4.60;;;3.17;;
40705;SDS011;35790;50.790;20.800;2022-08-21T14:41:37;3.55;;;3.12;;
40705;SDS011;35790;50.790;20.800;2022-08-21T14:44:24;3.65;;;3.30;;
40705;SDS011;35790;50.790;20.800;2022-08-21T14:47:12;5.33;;;2.95;;
40705;SDS011;35790;50.790;20.800;2022-08-21T14:49:59;4.75;;;2.85;;
40705;SDS011;35790;50.790;20.800;2022-08-21T14:52:47;7.70;;;3.50;;
40705;SDS011;35790;50.790;20.800;2022-08-21T14:55:34;4.80;;;3.05;;
40705;SDS011;35790;50.790;20.800;2022-08-21T14:58:25;4.42;;;3.05;;
40705;SDS011;35790;50.790;20.800;2022-08-21T15:01:13;6.10;;;2.85;;
40705;SDS011;35790;50.790;20.800;2022-08-21T15:04:03;4.72;;;3.08;;
40705;SDS011;35790;50.790;20.800;2022-08-21T15:06:50;4.40;;;3.27;;
40705;SDS011;35790;50.790;20.800;2022-08-21T15:09:38;4.90;;;3.02;;
40705;SDS011;35790;50.790;20.800;2022-08-21T15:12:25;10.15;;;3.83;;
40705;SDS011;35790;50.790;20.800;2022-08-21T15:15:13;5.50;;;3.15;;
40705;SDS011;35790;50.790;20.800;2022-08-21T15:18:01;10.00;;;3.80;;
40705;SDS011;35790;50.790;20.800;2022-08-21T15:20:49;3.83;;;3.40;;
40705;SDS011;35790;50.790;20.800;2022-08-21T15:23:37;5.05;;;3.22;;
40705;SDS011;35790;50.790;20.800;2022-08-21T15:26:26;6.80;;;3.10;;
40705;SDS011;35790;50.790;20.800;2022-08-21T15:29:13;5.53;;;3.37;;
40705;SDS011;35790;50.790;20.800;2022-08-21T15:32:14;6.10;;;3.37;;
40705;SDS011;35790;50.790;20.800;2022-08-21T15:35:08;5.00;;;3.37;;
40705;SDS011;35790;50.790;20.800;2022-08-21T15:37:56;3.47;;;3.08;;
40705;SDS011;35790;50.790;20.800;2022-08-21T15:40:43;4.80;;;3.52;;
40705;SDS011;35790;50.790;20.800;2022-08-21T15:46:29;5.12;;;3.50;;
40705;SDS011;35790;50.790;20.800;2022-08-21T15:49:17;5.03;;;3.58;;
40705;SDS011;35790;50.790;20.800;2022-08-21T15:52:04;6.10;;;3.45;;
40705;SDS011;35790;50.790;20.800;2022-08-21T15:54:52;6.50;;;3.58;;
40705;SDS011;35790;50.790;20.800;2022-08-21T15:57:45;5.70;;;3.85;;
40705;SDS011;35790;50.790;20.800;2022-08-21T16:00:35;4.47;;;3.50;;
40705;SDS011;35790;50.790;20.800;2022-08-21T16:03:22;5.75;;;3.83;;
40705;SDS011;35790;50.790;20.800;2022-08-21T16:06:11;5.58;;;3.52;;
40705;SDS011;35790;50.790;20.800;2022-08-21T16:08:59;5.35;;;3.83;;
40705;SDS011;35790;50.790;20.800;2022-08-21T16:11:46;4.70;;;3.40;;
40705;SDS011;35790;50.790;20.800;2022-08-21T16:14:34;5.40;;;4.22;;
40705;SDS011;35790;50.790;20.800;2022-08-21T16:17:27;4.40;;;3.60;;
40705;SDS011;35790;50.790;20.800;2022-08-21T16:20:19;4.90;;;4.00;;
40705;SDS011;35790;50.790;20.800;2022-08-21T16:23:05;4.62;;;3.80;;
40705;SDS011;35790;50.790;20.800;2022-08-21T16:25:53;4.62;;;3.87;;
40705;SDS011;35790;50.790;20.800;2022-08-21T16:28:44;7.65;;;4.28;;
40705;SDS011;35790;50.790;20.800;2022-08-21T16:31:32;6.33;;;4.42;;
40705;SDS011;35790;50.790;20.800;2022-08-21T16:34:19;6.62;;;4.75;;
40705;SDS011;35790;50.790;20.800;2022-08-21T16:37:07;6.75;;;4.47;;
40705;SDS011;35790;50.790;20.800;2022-08-21T16:39:55;5.55;;;4.58;;
40705;SDS011;35790;50.790;20.800;2022-08-21T16:42:43;8.85;;;5.10;;
40705;SDS011;35790;50.790;20.800;2022-08-21T16:45:31;6.03;;;4.40;;
40705;SDS011;35790;50.790;20.800;2022-08-21T16:48:19;5.22;;;4.58;;
40705;SDS011;35790;50.790;20.800;2022-08-21T16:51:06;5.83;;;4.15;;
40705;SDS011;35790;50.790;20.800;2022-08-21T16:53:54;6.12;;;4.53;;
40705;SDS011;35790;50.790;20.800;2022-08-21T16:56:41;7.10;;;4.80;;
40705;SDS011;35790;50.790;20.800;2022-08-21T16:59:32;6.17;;;4.65;;
40705;SDS011;35790;50.790;20.800;2022-08-21T17:02:32;9.00;;;5.15;;
40705;SDS011;35790;50.790;20.800;2022-08-21T17:05:19;10.00;;;5.28;;
40705;SDS011;35790;50.790;20.800;2022-08-21T17:08:07;6.72;;;4.58;;
40705;SDS011;35790;50.790;20.800;2022-08-21T17:10:55;8.33;;;5.03;;
40705;SDS011;35790;50.790;20.800;2022-08-21T17:13:42;7.53;;;4.60;;
40705;SDS011;35790;50.790;20.800;2022-08-21T17:16:29;7.42;;;4.78;;
40705;SDS011;35790;50.790;20.800;2022-08-21T17:19:17;6.03;;;4.35;;
40705;SDS011;35790;50.790;20.800;2022-08-21T17:22:07;7.23;;;4.17;;
40705;SDS011;35790;50.790;20.800;2022-08-21T17:24:55;7.15;;;4.47;;
40705;SDS011;35790;50.790;20.800;2022-08-21T17:27:43;5.72;;;4.22;;
40705;SDS011;35790;50.790;20.800;2022-08-21T17:30:33;6.00;;;3.72;;
40705;SDS011;35790;50.790;20.800;2022-08-21T17:33:23;4.87;;;4.37;;
40705;SDS011;35790;50.790;20.800;2022-08-21T17:38:59;4.35;;;3.95;;
40705;SDS011;35790;50.790;20.800;2022-08-21T17:41:47;4.58;;;3.90;;
40705;SDS011;35790;50.790;20.800;2022-08-21T17:44:37;7.37;;;3.93;;
40705;SDS011;35790;50.790;20.800;2022-08-21T17:47:27;4.75;;;4.00;;
40705;SDS011;35790;50.790;20.800;2022-08-21T17:50:16;6.40;;;3.85;;
40705;SDS011;35790;50.790;20.800;2022-08-21T17:53:06;4.67;;;4.28;;
40705;SDS011;35790;50.790;20.800;2022-08-21T17:55:54;6.83;;;4.15;;
40705;SDS011;35790;50.790;20.800;2022-08-21T18:01:37;5.08;;;4.33;;
40705;SDS011;35790;50.790;20.800;2022-08-21T18:04:24;5.72;;;4.05;;
40705;SDS011;35790;50.790;20.800;2022-08-21T18:07:13;4.00;;;3.60;;
40705;SDS011;35790;50.790;20.800;2022-08-21T18:10:04;4.67;;;4.17;;
40705;SDS011;35790;50.790;20.800;2022-08-21T18:12:56;4.17;;;3.80;;
40705;SDS011;35790;50.790;20.800;2022-08-21T18:15:45;6.43;;;4.17;;
40705;SDS011;35790;50.790;20.800;2022-08-21T18:21:24;4.37;;;3.77;;
40705;SDS011;35790;50.790;20.800;2022-08-21T18:24:12;6.55;;;4.15;;
40705;SDS011;35790;50.790;20.800;2022-08-21T18:27:01;4.62;;;4.22;;
40705;SDS011;35790;50.790;20.800;2022-08-21T18:29:50;4.62;;;4.22;;
40705;SDS011;35790;50.790;20.800;2022-08-21T18:35:28;7.17;;;4.15;;
40705;SDS011;35790;50.790;20.800;2022-08-21T18:38:18;5.08;;;4.58;;